Talcott, West Virginia
Current Conditions -  °F | °C
As of 1:51 PM on Friday 28 Nov 2014 (Local Time) from KBKW Reporting Station
Overcast Overcast  
Wind Chill: 19°   Ceiling: 2200
Heat Index: 27°   Visibility: 10mi
Dew Point: 17°   Wind: 7mph
Humidity: 66%   Direction: 290°WNW
Pressure: 30.24"   Gusts: NA
Location:  37.65°N, 80.75°W
Report Text: KBKW 281851Z AUTO 29006KT 10SM OVC022 M03/M08 A3024 RMK AO2 SLP277 T10281083
Loading
Personal Weather Stations






























Interactive Weather Map New forecast layout! Learn more

10-Day Weather Forecast

Advertisements
Track Severe Weather on mobile